Time;durP1;ratioP1;P1;durP2;ratioP2;P2;SDS_P1;SDS_P2;PMS_P1;PMS_P2;Temp;Humidity;BMP_temperature;BMP_pressure;BME280_temperature;BME280_humidity;BME280_pressure;Samples;Min_cycle;Max_cycle;Signal;HPM_P1;HPM_P2
2023/12/30 00:00:21;;;;;;;1.08;0.85;;;6.70;99.90;;;;;;4990276;28;20568;-79
2023/12/30 00:02:48;;;;;;;0.82;0.65;;;6.70;99.90;;;;;;4985884;28;20157;-78
2023/12/30 00:05:13;;;;;;;1.75;0.82;;;6.70;99.90;;;;;;4984119;28;20046;-79
2023/12/30 00:07:39;;;;;;;4.95;0.77;;;6.60;99.90;;;;;;4985857;28;20248;-78
2023/12/30 00:10:05;;;;;;;1.38;0.93;;;6.60;99.90;;;;;;4967794;28;20072;-79
2023/12/30 00:12:31;;;;;;;1.90;0.50;;;6.60;99.90;;;;;;4984194;28;20046;-78
2023/12/30 00:14:56;;;;;;;2.92;0.73;;;6.60;99.90;;;;;;4984537;28;20070;-76
2023/12/30 00:17:22;;;;;;;1.75;0.70;;;6.60;99.90;;;;;;4984625;28;20101;-78
2023/12/30 00:19:47;;;;;;;3.70;0.80;;;6.60;99.90;;;;;;4984801;28;20046;-78
2023/12/30 00:22:13;;;;;;;1.95;0.60;;;6.60;99.90;;;;;;4983856;28;20070;-78
2023/12/30 00:24:40;;;;;;;3.30;0.90;;;6.60;99.90;;;;;;4984186;28;20046;-78
2023/12/30 00:27:05;;;;;;;1.70;0.60;;;6.60;99.90;;;;;;4983480;28;20053;-77
2023/12/30 00:29:31;;;;;;;0.50;0.50;;;6.60;99.90;;;;;;4967762;28;20080;-79
2023/12/30 00:31:57;;;;;;;3.03;1.60;;;6.60;99.90;;;;;;4985289;28;20044;-79
2023/12/30 00:34:22;;;;;;;2.92;0.70;;;6.60;99.90;;;;;;4985958;28;20050;-78
2023/12/30 00:36:48;;;;;;;1.65;0.60;;;6.60;99.90;;;;;;4986915;28;20481;-79
2023/12/30 00:39:13;;;;;;;1.85;0.55;;;6.50;99.90;;;;;;4999273;28;20489;-78
2023/12/30 00:41:39;;;;;;;5.55;1.30;;;6.50;99.90;;;;;;4989112;28;20037;-78
2023/12/30 00:44:04;;;;;;;4.25;0.82;;;6.60;99.90;;;;;;5001561;28;20420;-78
2023/12/30 00:46:30;;;;;;;1.15;0.50;;;6.50;99.90;;;;;;4998786;28;20046;-78
2023/12/30 00:48:55;;;;;;;1.33;0.60;;;6.50;99.90;;;;;;4984600;28;20043;-79
2023/12/30 00:51:21;;;;;;;1.55;0.68;;;6.60;99.90;;;;;;5023010;28;20252;-78
2023/12/30 00:53:47;;;;;;;4.13;1.67;;;6.50;99.90;;;;;;5020381;28;20046;-78
2023/12/30 00:56:13;;;;;;;2.10;0.50;;;6.50;99.90;;;;;;4996174;28;20049;-79
2023/12/30 00:58:38;;;;;;;3.05;1.15;;;6.50;99.90;;;;;;5004292;28;20042;-77
2023/12/30 01:01:06;;;;;;;3.22;0.50;;;6.50;99.90;;;;;;5018162;28;20481;-79
2023/12/30 01:03:32;;;;;;;1.60;1.05;;;6.50;99.90;;;;;;4994059;28;20093;-78
2023/12/30 01:05:57;;;;;;;2.25;0.82;;;6.50;99.90;;;;;;5002833;28;20084;-77
2023/12/30 01:08:23;;;;;;;2.95;0.77;;;6.50;99.90;;;;;;5004235;28;20539;-78
2023/12/30 01:10:48;;;;;;;2.08;1.15;;;6.50;99.90;;;;;;5001736;28;20065;-78
2023/12/30 01:13:15;;;;;;;1.17;0.77;;;6.50;99.90;;;;;;5000306;28;20050;-79
2023/12/30 01:15:40;;;;;;;5.18;1.25;;;6.50;99.90;;;;;;4983556;28;20058;-79
2023/12/30 01:18:06;;;;;;;2.75;1.10;;;6.50;99.90;;;;;;4985329;28;20037;-78
2023/12/30 01:20:31;;;;;;;2.22;1.40;;;6.50;99.90;;;;;;4977535;28;20108;-79
2023/12/30 01:22:57;;;;;;;5.95;2.22;;;6.50;99.90;;;;;;5034890;28;20505;-78
2023/12/30 01:25:23;;;;;;;2.15;0.90;;;6.50;99.90;;;;;;4992465;28;20710;-77
2023/12/30 01:27:48;;;;;;;5.43;1.23;;;6.50;99.90;;;;;;5035610;28;20046;-78
2023/12/30 01:30:14;;;;;;;3.17;0.93;;;6.50;99.90;;;;;;5017797;28;20053;-78
2023/12/30 01:32:40;;;;;;;1.27;0.82;;;6.50;99.90;;;;;;5001699;28;20041;-79
2023/12/30 01:35:06;;;;;;;4.90;1.85;;;6.50;99.90;;;;;;5000714;28;20085;-78
2023/12/30 01:37:32;;;;;;;2.60;0.88;;;6.50;99.90;;;;;;5003234;28;20034;-78
2023/12/30 01:39:58;;;;;;;1.35;0.60;;;6.50;99.90;;;;;;5000311;28;21489;-79
2023/12/30 01:42:23;;;;;;;5.40;1.00;;;6.50;99.90;;;;;;4992234;28;20180;-78
2023/12/30 01:44:49;;;;;;;3.60;0.70;;;6.50;99.90;;;;;;5002013;28;20046;-77
2023/12/30 01:47:15;;;;;;;4.93;2.03;;;6.50;99.90;;;;;;4997874;28;20412;-79
2023/12/30 01:49:42;;;;;;;0.77;0.68;;;6.50;99.90;;;;;;4989793;28;20054;-77
2023/12/30 01:52:08;;;;;;;1.42;0.68;;;6.60;99.90;;;;;;4990422;28;20039;-78
2023/12/30 01:54:34;;;;;;;1.42;0.55;;;6.50;99.90;;;;;;5001930;28;20041;-78
2023/12/30 01:57:02;;;;;;;4.00;0.82;;;6.60;99.90;;;;;;4996249;28;20042;-78
2023/12/30 01:59:29;;;;;;;2.05;0.63;;;6.50;99.90;;;;;;4998132;28;20638;-78
2023/12/30 02:01:56;;;;;;;7.03;1.95;;;6.50;99.90;;;;;;4989606;28;20576;-77
2023/12/30 02:04:22;;;;;;;4.00;0.85;;;6.50;99.90;;;;;;4984179;28;20050;-79
2023/12/30 02:06:48;;;;;;;8.90;1.35;;;6.60;99.90;;;;;;5043477;23;20037;-77
2023/12/30 02:09:13;;;;;;;2.15;1.17;;;6.60;99.90;;;;;;4984696;28;20042;-78
2023/12/30 02:11:39;;;;;;;2.85;1.02;;;6.60;99.90;;;;;;5002481;28;20049;-78
2023/12/30 02:14:30;;;;;;;1.42;0.93;;;6.70;99.90;;;;;;4983859;28;20464;-78
2023/12/30 02:16:57;;;;;;;2.13;1.20;;;6.70;99.90;;;;;;4984453;28;20503;-78
2023/12/30 02:19:23;;;;;;;1.33;1.10;;;6.70;99.90;;;;;;5001451;28;20038;-78
2023/12/30 02:21:49;;;;;;;6.85;2.42;;;6.70;99.90;;;;;;4983821;28;20126;-78
2023/12/30 02:24:15;;;;;;;1.67;1.27;;;6.70;99.90;;;;;;4993802;28;20139;-78
2023/12/30 02:26:41;;;;;;;6.13;1.73;;;6.70;99.90;;;;;;4993401;28;20105;-79
2023/12/30 02:29:07;;;;;;;4.88;1.17;;;6.70;99.90;;;;;;4983166;28;20042;-77
2023/12/30 02:31:35;;;;;;;3.53;1.42;;;6.70;99.90;;;;;;4967358;28;20385;-78
2023/12/30 02:34:01;;;;;;;4.18;1.70;;;6.70;99.90;;;;;;4983115;28;20480;-77
2023/12/30 02:36:27;;;;;;;4.95;0.90;;;6.70;99.90;;;;;;4981061;28;20181;-77
2023/12/30 02:38:52;;;;;;;1.65;1.23;;;6.70;99.90;;;;;;4997674;28;20044;-78
2023/12/30 02:41:18;;;;;;;3.60;1.35;;;6.60;99.90;;;;;;4993859;28;20401;-78
2023/12/30 02:43:57;;;;;;;4.35;1.08;;;6.70;99.90;;;;;;4983747;28;20054;-77
2023/12/30 02:46:22;;;;;;;3.67;1.38;;;6.70;99.90;;;;;;4974138;28;20035;-77
2023/12/30 02:48:48;;;;;;;5.57;1.52;;;6.70;99.90;;;;;;4986942;28;20041;-77
2023/12/30 02:51:15;;;;;;;6.82;1.13;;;6.70;99.90;;;;;;5000907;28;20113;-77
2023/12/30 02:53:40;;;;;;;4.95;0.70;;;6.70;99.90;;;;;;4990990;28;20480;-77
2023/12/30 02:56:06;;;;;;;1.23;0.70;;;6.70;99.90;;;;;;4989913;28;20046;-77
2023/12/30 02:58:32;;;;;;;1.13;0.93;;;6.70;99.90;;;;;;4986801;28;20088;-77
2023/12/30 03:00:58;;;;;;;8.50;1.77;;;6.70;99.90;;;;;;5022249;28;20840;-77
2023/12/30 03:03:23;;;;;;;3.95;0.95;;;6.70;99.90;;;;;;4986858;28;20035;-77
2023/12/30 03:05:49;;;;;;;2.05;1.25;;;6.70;99.90;;;;;;4997106;28;20136;-77
2023/12/30 03:08:14;;;;;;;14.23;1.92;;;6.70;99.90;;;;;;4988795;28;20054;-77
2023/12/30 03:10:40;;;;;;;5.75;1.38;;;6.70;99.90;;;;;;4985023;28;20101;-77
2023/12/30 03:13:05;;;;;;;3.20;1.42;;;6.70;99.90;;;;;;5000563;28;20391;-77
2023/12/30 03:15:31;;;;;;;3.53;1.08;;;6.70;99.90;;;;;;5004333;28;20038;-78
2023/12/30 03:17:58;;;;;;;2.70;1.05;;;6.80;99.90;;;;;;5034871;28;20540;-78
2023/12/30 03:20:23;;;;;;;2.22;1.65;;;6.80;99.90;;;;;;4988806;28;20137;-78
2023/12/30 03:22:49;;;;;;;5.70;0.88;;;6.80;99.90;;;;;;5033939;28;20647;-77
2023/12/30 03:25:14;;;;;;;3.13;0.80;;;6.80;99.90;;;;;;5037719;28;20124;-77
2023/12/30 03:27:40;;;;;;;1.58;1.15;;;6.80;99.90;;;;;;4992982;28;20583;-77
2023/12/30 03:30:06;;;;;;;4.05;1.25;;;6.80;99.90;;;;;;4990664;28;20065;-78
2023/12/30 03:32:32;;;;;;;2.72;0.65;;;6.80;99.90;;;;;;4987271;28;20373;-77
2023/12/30 03:34:57;;;;;;;2.70;1.15;;;6.80;99.90;;;;;;5030732;28;20100;-78
2023/12/30 03:37:23;;;;;;;4.75;2.70;;;6.80;99.90;;;;;;5003443;28;20046;-77
2023/12/30 03:39:49;;;;;;;3.33;1.77;;;6.70;99.90;;;;;;5036262;28;21530;-77
2023/12/30 03:42:14;;;;;;;3.00;1.83;;;6.70;99.90;;;;;;5004068;28;20107;-78
2023/12/30 03:44:40;;;;;;;1.13;0.82;;;6.70;99.90;;;;;;5035766;28;20397;-77
2023/12/30 03:47:06;;;;;;;4.57;1.33;;;6.70;99.90;;;;;;5027576;28;20038;-78
2023/12/30 03:49:31;;;;;;;3.90;0.95;;;6.70;99.90;;;;;;4989634;28;20046;-78
2023/12/30 03:51:57;;;;;;;3.75;1.30;;;6.70;99.90;;;;;;4968786;28;20105;-78
2023/12/30 03:54:23;;;;;;;4.88;1.33;;;6.80;99.90;;;;;;4995000;28;20045;-77
2023/12/30 03:56:48;;;;;;;1.40;0.80;;;6.80;99.90;;;;;;5033153;28;20041;-77
2023/12/30 03:59:14;;;;;;;2.65;1.00;;;6.80;99.90;;;;;;4992146;28;20509;-77
2023/12/30 04:01:42;;;;;;;3.38;1.05;;;6.80;99.90;;;;;;4990904;28;20042;-77
2023/12/30 04:04:07;;;;;;;3.97;1.42;;;6.80;99.90;;;;;;4969019;28;20051;-77
2023/12/30 04:06:33;;;;;;;3.08;1.38;;;6.80;99.90;;;;;;4984616;28;20046;-77
2023/12/30 04:08:58;;;;;;;2.95;1.92;;;6.80;99.90;;;;;;4995042;28;20058;-77
2023/12/30 04:11:24;;;;;;;1.13;0.77;;;6.80;99.90;;;;;;4999481;28;20057;-77
2023/12/30 04:13:49;;;;;;;3.97;1.42;;;6.80;99.90;;;;;;4968801;28;20049;-77
2023/12/30 04:16:15;;;;;;;1.63;0.98;;;6.80;99.90;;;;;;4985654;28;20044;-77
2023/12/30 04:18:41;;;;;;;0.98;0.98;;;6.80;99.90;;;;;;4991472;28;20080;-77
2023/12/30 04:21:06;;;;;;;2.67;0.77;;;6.80;99.90;;;;;;5002053;28;20050;-77
2023/12/30 04:23:32;;;;;;;3.97;1.48;;;6.80;99.90;;;;;;4989223;28;20102;-77
2023/12/30 04:25:57;;;;;;;0.60;0.57;;;6.80;99.90;;;;;;4983952;28;20096;-77
2023/12/30 04:28:23;;;;;;;1.35;1.25;;;6.80;99.90;;;;;;4985383;28;20042;-77
2023/12/30 04:30:48;;;;;;;5.80;0.80;;;6.80;99.90;;;;;;4984732;28;20034;-77
2023/12/30 04:33:14;;;;;;;5.22;0.90;;;6.80;99.90;;;;;;4991797;28;20038;-77
2023/12/30 04:35:41;;;;;;;1.55;0.93;;;6.80;99.90;;;;;;4984375;28;20076;-77
2023/12/30 04:38:07;;;;;;;3.53;2.47;;;6.80;99.90;;;;;;4984451;28;20073;-77
2023/12/30 04:40:32;;;;;;;0.93;0.90;;;6.80;99.90;;;;;;4985146;28;20506;-77
2023/12/30 04:42:58;;;;;;;6.00;0.88;;;6.80;99.90;;;;;;5002871;28;20042;-77
2023/12/30 04:45:23;;;;;;;3.92;0.98;;;6.80;99.90;;;;;;5034001;28;20055;-77
2023/12/30 04:47:49;;;;;;;9.13;1.85;;;6.80;99.90;;;;;;5029569;28;20049;-77
2023/12/30 04:50:14;;;;;;;2.53;1.20;;;6.80;99.90;;;;;;5029457;28;20045;-77
2023/12/30 04:52:41;;;;;;;4.63;2.13;;;6.80;99.90;;;;;;5001051;28;20124;-77
2023/12/30 04:55:07;;;;;;;5.10;1.80;;;6.80;99.90;;;;;;4989881;28;20054;-77
2023/12/30 04:57:32;;;;;;;2.03;1.83;;;6.80;99.90;;;;;;4988328;28;20037;-77
2023/12/30 04:59:58;;;;;;;3.55;1.25;;;6.80;99.90;;;;;;4984545;28;20046;-77
2023/12/30 05:02:23;;;;;;;1.98;1.40;;;6.80;99.90;;;;;;4984766;28;20042;-77
2023/12/30 05:04:49;;;;;;;5.20;2.00;;;6.80;99.90;;;;;;4983647;28;20129;-77
2023/12/30 05:07:14;;;;;;;0.93;0.93;;;6.80;99.90;;;;;;4999500;28;20073;-77
2023/12/30 05:09:40;;;;;;;3.55;1.10;;;6.80;99.90;;;;;;5003887;28;20060;-77
2023/12/30 05:12:06;;;;;;;0.90;0.63;;;6.80;99.90;;;;;;5002312;28;20037;-77
2023/12/30 05:14:31;;;;;;;1.45;0.93;;;6.80;99.90;;;;;;5002877;28;20050;-77
2023/12/30 05:16:57;;;;;;;4.10;0.77;;;6.80;99.90;;;;;;4986089;28;20065;-77
2023/12/30 05:19:23;;;;;;;1.60;0.93;;;6.80;99.90;;;;;;4974652;28;20042;-77
2023/12/30 05:21:51;;;;;;;2.30;1.05;;;6.80;99.90;;;;;;4998749;28;20037;-77
2023/12/30 05:24:17;;;;;;;1.95;1.75;;;6.80;99.90;;;;;;4985956;28;20048;-77
2023/12/30 05:26:42;;;;;;;1.90;0.90;;;6.80;99.90;;;;;;4967377;28;20138;-77
2023/12/30 05:29:08;;;;;;;1.20;0.63;;;6.80;99.90;;;;;;4982534;28;20040;-77
2023/12/30 05:31:33;;;;;;;3.50;0.80;;;6.80;99.90;;;;;;4983819;28;20386;-77
2023/12/30 05:33:59;;;;;;;2.08;1.45;;;6.80;99.90;;;;;;4983855;28;20113;-77
2023/12/30 05:36:24;;;;;;;4.47;2.03;;;6.80;99.90;;;;;;4982566;28;20089;-77
2023/12/30 05:38:50;;;;;;;2.22;1.60;;;6.80;99.90;;;;;;4983950;28;20046;-77
2023/12/30 05:41:16;;;;;;;3.53;1.35;;;6.80;99.90;;;;;;4984510;28;20112;-77
2023/12/30 05:43:41;;;;;;;4.25;0.88;;;6.80;99.90;;;;;;4993932;28;20504;-76
2023/12/30 05:46:07;;;;;;;3.60;0.90;;;6.80;99.90;;;;;;4984520;28;20046;-77
2023/12/30 05:48:33;;;;;;;4.35;1.25;;;6.80;99.90;;;;;;4982751;28;20049;-77
2023/12/30 05:50:59;;;;;;;2.95;1.45;;;6.90;99.90;;;;;;4980903;28;20427;-77
2023/12/30 05:53:24;;;;;;;2.85;0.82;;;6.80;99.90;;;;;;4982961;28;20092;-77
2023/12/30 05:55:52;;;;;;;1.20;1.10;;;6.90;99.90;;;;;;4983929;28;20704;-77
2023/12/30 05:58:18;;;;;;;7.75;1.45;;;6.90;99.90;;;;;;4999127;28;20042;-77
2023/12/30 06:00:43;;;;;;;4.35;0.95;;;6.90;99.90;;;;;;4991293;28;20499;-77
2023/12/30 06:03:09;;;;;;;2.60;1.48;;;6.90;99.90;;;;;;4988195;28;20046;-77
2023/12/30 06:05:35;;;;;;;21.88;2.55;;;6.90;99.90;;;;;;4981843;28;20046;-77
2023/12/30 06:08:01;;;;;;;0.88;0.85;;;6.90;99.90;;;;;;4995451;28;20057;-77
2023/12/30 06:10:27;;;;;;;0.80;0.65;;;6.90;99.90;;;;;;4983327;28;20408;-76
2023/12/30 06:12:52;;;;;;;1.23;0.80;;;6.90;99.90;;;;;;4979499;28;20050;-77
2023/12/30 06:15:20;;;;;;;4.20;1.52;;;6.90;99.90;;;;;;4984977;28;20053;-77
2023/12/30 06:17:46;;;;;;;1.55;0.98;;;6.90;99.90;;;;;;4982360;28;20038;-77
2023/12/30 06:20:11;;;;;;;2.88;1.40;;;7.00;99.90;;;;;;4982017;28;20759;-77
2023/12/30 06:22:37;;;;;;;1.70;1.20;;;6.90;99.90;;;;;;4982919;28;20046;-77
2023/12/30 06:25:03;;;;;;;2.50;1.40;;;6.90;99.90;;;;;;5034557;28;20054;-77
2023/12/30 06:27:29;;;;;;;4.13;1.15;;;6.90;99.90;;;;;;5000753;28;20046;-77
2023/12/30 06:29:54;;;;;;;4.80;1.25;;;6.90;99.90;;;;;;4991325;28;20400;-78
2023/12/30 06:32:20;;;;;;;4.38;1.08;;;6.90;99.90;;;;;;5000138;28;20045;-78
2023/12/30 06:34:45;;;;;;;5.80;1.45;;;6.90;99.90;;;;;;5036107;28;20060;-77
2023/12/30 06:37:11;;;;;;;3.45;0.90;;;6.90;99.90;;;;;;5006665;28;20124;-77
2023/12/30 06:39:37;;;;;;;0.77;0.73;;;6.90;99.90;;;;;;5006086;28;20046;-77
2023/12/30 06:42:02;;;;;;;4.55;1.42;;;6.80;99.90;;;;;;5006665;28;20107;-77
2023/12/30 06:44:28;;;;;;;1.95;0.55;;;6.80;99.90;;;;;;4990787;28;20051;-77
2023/12/30 06:46:54;;;;;;;2.63;1.08;;;6.80;99.90;;;;;;4987578;28;20049;-77
2023/12/30 06:49:19;;;;;;;0.52;0.52;;;6.80;99.90;;;;;;4998132;28;20069;-77
2023/12/30 06:51:45;;;;;;;8.00;1.70;;;6.80;99.90;;;;;;5036738;28;20041;-77
2023/12/30 06:54:11;;;;;;;3.42;1.48;;;6.80;99.90;;;;;;5005877;28;20100;-77
2023/12/30 06:56:36;;;;;;;3.55;1.38;;;6.70;99.90;;;;;;5021872;28;20108;-77
2023/12/30 06:59:02;;;;;;;2.92;1.02;;;6.70;99.90;;;;;;4991524;28;20038;-77
2023/12/30 07:01:28;;;;;;;1.30;0.80;;;6.70;99.90;;;;;;4997273;28;20053;-77
2023/12/30 07:03:55;;;;;;;6.32;1.48;;;6.60;99.90;;;;;;5035560;28;20049;-77
2023/12/30 07:06:23;;;;;;;2.67;0.90;;;6.60;99.90;;;;;;4993745;28;20097;-77
2023/12/30 07:08:49;;;;;;;8.63;1.73;;;6.60;99.90;;;;;;4988508;28;20054;-77
2023/12/30 07:11:14;;;;;;;1.42;1.02;;;6.60;99.90;;;;;;4989990;28;20133;-77
2023/12/30 07:13:40;;;;;;;4.03;1.35;;;6.60;99.90;;;;;;4985536;28;20038;-78
2023/12/30 07:16:06;;;;;;;1.90;1.05;;;6.50;99.90;;;;;;4985907;28;20826;-77
2023/12/30 07:18:31;;;;;;;1.45;1.13;;;6.60;99.90;;;;;;4985680;28;20054;-77
2023/12/30 07:20:57;;;;;;;2.08;1.48;;;6.60;99.90;;;;;;4985194;28;20053;-77
2023/12/30 07:23:23;;;;;;;3.60;1.63;;;6.60;99.90;;;;;;5002504;28;20638;-77
2023/12/30 07:25:51;;;;;;;3.13;1.38;;;6.60;99.90;;;;;;4993636;28;20045;-77
2023/12/30 07:28:16;;;;;;;1.02;0.77;;;6.60;99.90;;;;;;5004964;28;20077;-77
2023/12/30 07:30:42;;;;;;;5.28;1.42;;;6.60;99.90;;;;;;5004602;28;20132;-77
2023/12/30 07:33:07;;;;;;;2.10;1.38;;;6.60;99.90;;;;;;5021614;28;20049;-77
2023/12/30 07:35:33;;;;;;;1.20;0.90;;;6.60;99.90;;;;;;4983531;28;20445;-77
2023/12/30 07:37:58;;;;;;;2.40;0.80;;;6.60;99.90;;;;;;4984873;28;20038;-76
2023/12/30 07:40:24;;;;;;;2.15;1.48;;;6.60;99.90;;;;;;4987872;28;20073;-77
2023/12/30 07:42:50;;;;;;;2.08;0.82;;;6.70;99.90;;;;;;4985871;28;20057;-77
2023/12/30 07:45:16;;;;;;;2.60;0.88;;;6.60;99.90;;;;;;4985328;28;20046;-76
2023/12/30 07:47:42;;;;;;;4.90;1.10;;;6.60;99.90;;;;;;4983891;28;20046;-77
2023/12/30 07:50:08;;;;;;;4.00;0.60;;;6.60;99.90;;;;;;4980347;28;20105;-77
2023/12/30 07:52:33;;;;;;;6.30;0.90;;;6.60;99.90;;;;;;4980870;28;20042;-77
2023/12/30 07:54:59;;;;;;;1.25;0.70;;;6.60;99.90;;;;;;5010721;28;20042;-78
2023/12/30 07:57:25;;;;;;;3.17;0.90;;;6.60;99.90;;;;;;4974811;28;20039;-78
2023/12/30 07:59:50;;;;;;;3.10;0.85;;;6.60;99.90;;;;;;5025536;28;20061;-79
2023/12/30 08:02:16;;;;;;;8.77;2.72;;;6.50;99.90;;;;;;4998800;28;20646;-79
2023/12/30 08:04:43;;;;;;;1.80;1.20;;;6.50;99.90;;;;;;4983924;28;20054;-79
2023/12/30 08:07:09;;;;;;;1.15;1.05;;;6.50;99.90;;;;;;4984837;28;20138;-79
2023/12/30 08:09:36;;;;;;;1.80;1.42;;;6.40;99.90;;;;;;4985374;28;20152;-79
2023/12/30 08:12:02;;;;;;;2.53;1.50;;;6.50;99.90;;;;;;4970514;28;20045;-80
2023/12/30 08:14:28;;;;;;;1.80;1.27;;;6.40;99.90;;;;;;4985053;28;20046;-79
2023/12/30 08:16:53;;;;;;;1.73;1.02;;;6.50;99.90;;;;;;4986692;28;20407;-79
2023/12/30 08:19:19;;;;;;;14.77;1.80;;;6.40;99.90;;;;;;4984831;28;20049;-80
2023/12/30 08:21:44;;;;;;;2.42;1.27;;;6.40;99.90;;;;;;4981150;28;20081;-78
2023/12/30 08:24:11;;;;;;;2.63;1.42;;;6.40;99.90;;;;;;5003926;28;20042;-80
2023/12/30 08:26:36;;;;;;;4.18;0.60;;;6.50;99.90;;;;;;4988580;28;20042;-79
2023/12/30 08:29:02;;;;;;;4.00;2.25;;;6.50;99.90;;;;;;5001993;28;20112;-79
2023/12/30 08:31:28;;;;;;;6.95;0.75;;;6.50;99.90;;;;;;4979437;28;20138;-80
2023/12/30 08:33:53;;;;;;;6.22;1.02;;;6.50;99.90;;;;;;4978423;28;20358;-81
2023/12/30 08:36:19;;;;;;;3.13;1.35;;;6.60;99.90;;;;;;4980152;28;20042;-80
2023/12/30 08:38:45;;;;;;;4.07;2.53;;;6.50;99.90;;;;;;4973639;28;20042;-82
2023/12/30 08:41:14;;;;;;;3.90;1.00;;;6.60;99.90;;;;;;5022022;28;20050;-82
2023/12/30 08:43:43;;;;;;;1.88;0.90;;;6.60;99.90;;;;;;5000605;28;20125;-82
2023/12/30 08:46:09;;;;;;;1.85;1.13;;;6.60;99.90;;;;;;4984492;28;20041;-81
2023/12/30 08:48:36;;;;;;;6.20;1.77;;;6.60;99.90;;;;;;4994827;28;20077;-82
2023/12/30 08:51:01;;;;;;;3.08;0.85;;;6.70;99.90;;;;;;4996201;28;20049;-82
2023/12/30 08:53:27;;;;;;;2.35;0.75;;;6.70;99.90;;;;;;4989072;28;20058;-82
2023/12/30 08:55:53;;;;;;;3.95;1.17;;;6.70;99.90;;;;;;5028879;28;20432;-82
2023/12/30 08:58:18;;;;;;;2.15;0.68;;;6.70;99.90;;;;;;4988015;28;20092;-81
2023/12/30 09:00:44;;;;;;;3.08;1.23;;;6.70;99.90;;;;;;4983661;28;20075;-82
2023/12/30 09:03:10;;;;;;;6.28;2.03;;;6.80;99.90;;;;;;5009659;28;20046;-81
2023/12/30 09:05:35;;;;;;;2.00;0.90;;;6.80;99.90;;;;;;4985546;28;20053;-80
2023/12/30 09:08:04;;;;;;;2.97;0.95;;;6.80;99.90;;;;;;5006713;28;20199;-79
2023/12/30 09:10:31;;;;;;;2.10;1.95;;;6.80;99.90;;;;;;4999278;28;20044;-82
2023/12/30 09:12:57;;;;;;;4.50;1.83;;;6.80;99.90;;;;;;4985285;28;20113;-82
2023/12/30 09:15:23;;;;;;;2.03;1.13;;;6.80;99.90;;;;;;4982323;28;20046;-81
2023/12/30 09:17:48;;;;;;;3.60;0.70;;;6.90;99.90;;;;;;4986551;28;20047;-80
2023/12/30 09:20:14;;;;;;;4.55;1.05;;;6.90;99.90;;;;;;4995364;28;20053;-81
2023/12/30 09:22:39;;;;;;;3.33;0.60;;;6.90;99.90;;;;;;4983294;28;20057;-81
2023/12/30 09:25:06;;;;;;;3.60;1.48;;;6.90;99.90;;;;;;4984960;28;20516;-80
2023/12/30 09:27:32;;;;;;;1.42;0.70;;;6.90;99.90;;;;;;4992010;28;20037;-81
2023/12/30 09:29:57;;;;;;;4.20;0.77;;;7.00;99.90;;;;;;4977062;28;20120;-78
2023/12/30 09:32:23;;;;;;;2.90;0.90;;;6.90;99.90;;;;;;4967235;28;20137;-78
2023/12/30 09:34:48;;;;;;;4.07;0.93;;;7.00;99.90;;;;;;4982103;28;20054;-77
2023/12/30 09:37:14;;;;;;;1.40;0.90;;;7.00;99.90;;;;;;4982356;28;20046;-79
2023/12/30 09:39:41;;;;;;;2.40;2.08;;;7.00;99.90;;;;;;4992678;28;20165;-78
2023/12/30 09:42:06;;;;;;;4.60;1.10;;;7.00;99.90;;;;;;5003341;28;20038;-79
2023/12/30 09:44:32;;;;;;;5.32;1.02;;;7.00;99.90;;;;;;4995024;28;20050;-79
2023/12/30 09:47:01;;;;;;;3.95;1.08;;;7.00;99.90;;;;;;4992967;28;20128;-79
2023/12/30 09:49:30;;;;;;;2.75;0.88;;;7.00;99.90;;;;;;4994128;28;20050;-79
2023/12/30 09:52:00;;;;;;;2.88;0.50;;;7.00;99.90;;;;;;4968580;28;20048;-78
2023/12/30 09:54:27;;;;;;;1.05;0.80;;;7.00;99.90;;;;;;4970024;28;20054;-78
2023/12/30 09:56:53;;;;;;;1.63;1.05;;;7.00;99.90;;;;;;4983282;28;20092;-76
2023/12/30 09:59:19;;;;;;;1.77;0.60;;;7.00;99.90;;;;;;5007829;28;20511;-78
2023/12/30 10:01:44;;;;;;;2.75;0.95;;;7.00;99.90;;;;;;5027566;28;20039;-79
2023/12/30 10:04:10;;;;;;;1.75;0.55;;;7.00;99.90;;;;;;4987375;28;20121;-81
2023/12/30 10:06:37;;;;;;;1.75;1.40;;;7.00;99.90;;;;;;4977888;28;20068;-78
2023/12/30 10:09:02;;;;;;;1.00;0.85;;;7.00;99.90;;;;;;4981212;28;20751;-78
2023/12/30 10:11:28;;;;;;;3.33;0.65;;;7.00;99.90;;;;;;4989948;28;20078;-78
2023/12/30 10:13:54;;;;;;;2.05;0.65;;;7.00;99.90;;;;;;5015025;28;20140;-79
2023/12/30 10:16:19;;;;;;;4.28;0.73;;;7.00;99.90;;;;;;4993695;28;20058;-78
2023/12/30 10:18:45;;;;;;;1.35;0.45;;;7.10;99.90;;;;;;4999020;28;20046;-78
2023/12/30 10:21:10;;;;;;;3.30;1.05;;;7.10;99.90;;;;;;4991001;28;20137;-79
2023/12/30 10:23:37;;;;;;;7.22;1.92;;;7.10;99.90;;;;;;4976785;28;20056;-80
2023/12/30 10:26:03;;;;;;;3.67;1.27;;;7.10;99.90;;;;;;4987527;28;20046;-78
2023/12/30 10:28:30;;;;;;;3.78;1.25;;;7.10;99.90;;;;;;4998136;28;20047;-79
2023/12/30 10:31:04;;;;;;;1.25;1.08;;;7.10;99.90;;;;;;4989283;28;20121;-79
2023/12/30 10:33:30;;;;;;;2.33;0.82;;;7.10;99.90;;;;;;4979103;28;20066;-78
2023/12/30 10:35:57;;;;;;;1.92;0.90;;;7.10;99.90;;;;;;4986481;28;20057;-79
2023/12/30 10:38:23;;;;;;;4.25;0.88;;;7.20;99.90;;;;;;4993603;28;20096;-78
2023/12/30 10:40:52;;;;;;;4.30;1.35;;;7.20;99.90;;;;;;4991095;28;20065;-79
2023/12/30 10:43:21;;;;;;;1.55;0.95;;;7.20;99.90;;;;;;4994819;28;20121;-79
2023/12/30 10:45:58;;;;;;;3.00;0.63;;;7.20;99.90;;;;;;4985787;28;20046;-79
2023/12/30 10:48:31;;;;;;;2.50;0.65;;;7.20;99.90;;;;;;5016734;28;20048;-78
2023/12/30 10:51:00;;;;;;;;;;;7.20;99.90;;;;;;4974110;28;20042;-78
2023/12/30 10:53:44;;;;;;;1.95;1.08;;;7.20;99.90;;;;;;4986742;28;19921;-77
2023/12/30 10:56:11;;;;;;;6.65;1.38;;;7.20;99.90;;;;;;4989356;28;20100;-77
2023/12/30 10:58:40;;;;;;;1.52;1.10;;;7.20;99.90;;;;;;4989557;28;20049;-79
2023/12/30 11:01:06;;;;;;;1.73;0.73;;;7.20;99.90;;;;;;4985743;28;20035;-75
2023/12/30 11:03:33;;;;;;;0.95;0.57;;;7.20;99.90;;;;;;4991365;28;20124;-78
2023/12/30 11:06:07;;;;;;;6.25;0.80;;;7.20;99.90;;;;;;4985893;28;20046;-76
2023/12/30 11:08:33;;;;;;;1.02;0.50;;;7.20;99.90;;;;;;4974371;28;20112;-77
2023/12/30 11:11:03;;;;;;;6.55;0.73;;;7.30;99.90;;;;;;4993854;28;20130;-76
2023/12/30 11:13:36;;;;;;;0.68;0.65;;;7.20;99.90;;;;;;4986950;28;20047;-78
2023/12/30 11:16:19;;;;;;;5.20;1.25;;;7.30;99.90;;;;;;4989669;28;20408;-78
2023/12/30 11:18:49;;;;;;;1.52;0.95;;;7.30;99.90;;;;;;4968488;28;20053;-78
2023/12/30 11:21:38;;;;;;;0.90;0.90;;;7.30;99.90;;;;;;4988091;28;20042;-78
2023/12/30 11:24:06;;;;;;;4.68;0.65;;;7.40;99.90;;;;;;4995875;28;20096;-78
2023/12/30 11:26:33;;;;;;;2.05;1.13;;;7.40;99.90;;;;;;4987957;28;20046;-80
2023/12/30 11:29:01;;;;;;;1.80;0.82;;;7.40;99.90;;;;;;4982162;28;20038;-78
2023/12/30 11:31:39;;;;;;;1.80;0.80;;;7.50;99.90;;;;;;4992609;28;20046;-78
2023/12/30 11:34:04;;;;;;;0.98;0.47;;;7.50;99.90;;;;;;4976142;28;20074;-78
2023/12/30 11:36:30;;;;;;;6.47;1.60;;;7.50;99.90;;;;;;4976187;28;20119;-79
2023/12/30 11:38:58;;;;;;;3.53;1.52;;;7.50;99.90;;;;;;4979352;28;20046;-79
2023/12/30 11:41:25;;;;;;;3.83;0.82;;;7.50;99.90;;;;;;4985221;28;20049;-80
2023/12/30 11:43:51;;;;;;;2.58;0.65;;;7.50;99.90;;;;;;4997997;28;20539;-81
2023/12/30 11:46:17;;;;;;;1.60;0.80;;;7.50;99.90;;;;;;4973566;28;20046;-80
2023/12/30 11:48:44;;;;;;;0.82;0.65;;;7.50;99.90;;;;;;4973856;28;20053;-79
2023/12/30 11:51:18;;;;;;;0.63;0.50;;;7.50;99.90;;;;;;4984542;28;20046;-79
2023/12/30 11:53:44;;;;;;;13.00;1.30;;;7.50;99.90;;;;;;4997647;28;20089;-78
2023/12/30 11:56:09;;;;;;;0.40;0.40;;;7.60;99.90;;;;;;4987238;28;20053;-80
2023/12/30 11:58:36;;;;;;;4.60;1.52;;;7.60;99.90;;;;;;4984927;28;20046;-80
2023/12/30 12:01:02;;;;;;;1.30;0.82;;;7.60;99.90;;;;;;5014457;28;20538;-78
2023/12/30 12:03:27;;;;;;;2.97;1.17;;;7.60;99.90;;;;;;4985557;28;20074;-79
2023/12/30 12:05:53;;;;;;;2.58;1.20;;;7.60;99.90;;;;;;4985280;28;20046;-79
2023/12/30 12:08:19;;;;;;;1.48;0.95;;;7.70;99.90;;;;;;4993361;28;20461;-78
2023/12/30 12:10:46;;;;;;;0.75;0.50;;;7.70;99.90;;;;;;4983459;28;20050;-79
2023/12/30 12:13:25;;;;;;;5.10;1.58;;;7.70;99.90;;;;;;4985130;28;20179;-79
2023/12/30 12:15:52;;;;;;;4.68;1.02;;;7.70;99.90;;;;;;4985543;28;20584;-80
2023/12/30 12:18:20;;;;;;;2.47;0.75;;;7.70;99.90;;;;;;4990528;28;20065;-79
2023/12/30 12:20:46;;;;;;;0.75;0.50;;;7.70;99.90;;;;;;4987038;28;20457;-79
2023/12/30 12:23:12;;;;;;;5.30;1.08;;;7.70;99.90;;;;;;4995390;28;20492;-78
2023/12/30 12:25:38;;;;;;;3.47;0.90;;;7.80;99.90;;;;;;5003793;28;20058;-79
2023/12/30 12:28:09;;;;;;;5.18;0.80;;;7.80;99.90;;;;;;4983417;28;20108;-78
2023/12/30 12:30:35;;;;;;;2.13;1.15;;;7.80;99.90;;;;;;4987330;28;20335;-79
2023/12/30 12:33:00;;;;;;;1.63;0.88;;;7.80;99.90;;;;;;4989704;28;20227;-79
2023/12/30 12:35:26;;;;;;;0.60;0.60;;;7.80;99.90;;;;;;5024225;28;20128;-78
2023/12/30 12:37:52;;;;;;;4.28;0.85;;;7.80;99.90;;;;;;5019060;28;20600;-78
2023/12/30 12:40:17;;;;;;;5.80;1.25;;;7.80;99.90;;;;;;4982086;28;20042;-78
2023/12/30 12:42:43;;;;;;;2.08;1.00;;;7.80;99.90;;;;;;4990625;28;20089;-80
2023/12/30 12:45:09;;;;;;;6.75;1.58;;;7.80;99.90;;;;;;4984808;28;20564;-77
2023/12/30 12:47:35;;;;;;;0.80;0.40;;;7.80;99.90;;;;;;4991885;28;20044;-79
2023/12/30 12:50:01;;;;;;;1.80;1.20;;;7.80;99.90;;;;;;5016607;28;20100;-79
2023/12/30 12:52:27;;;;;;;2.55;1.10;;;7.80;99.90;;;;;;4985297;28;20392;-78